createdAt,value
2022-08-17T00:00:43.645Z,95.44
2022-08-17T00:01:20.375Z,95.40
2022-08-17T00:02:25.334Z,94.84
2022-08-17T00:03:20.265Z,94.84
2022-08-17T00:04:19.450Z,95.44
2022-08-17T00:05:19.215Z,95.44
2022-08-17T00:06:19.203Z,95.04
2022-08-17T00:07:19.192Z,95.04
2022-08-17T00:08:19.214Z,94.94
2022-08-17T00:09:19.556Z,95.54
2022-08-17T00:10:19.171Z,95.24
2022-08-17T00:11:19.150Z,95.24
2022-08-17T00:12:42.278Z,95.14
2022-08-17T00:13:20.152Z,95.34
2022-08-17T00:14:19.127Z,95.64
2022-08-17T00:15:19.108Z,95.64
2022-08-17T00:16:19.110Z,95.75
2022-08-17T00:17:19.092Z,96.35
2022-08-17T00:19:00.935Z,96.45
2022-08-17T00:19:20.088Z,96.39
2022-08-17T00:20:19.072Z,96.09
2022-08-17T00:21:23.837Z,95.59
2022-08-17T00:22:33.947Z,96.09
2022-08-17T00:23:20.030Z,95.89
2022-08-17T00:24:19.023Z,96.25
2022-08-17T00:25:19.014Z,96.09
2022-08-17T00:26:34.535Z,96.25
2022-08-17T00:27:20.000Z,96.19
2022-08-17T00:28:18.968Z,96.09
2022-08-17T00:29:20.012Z,96.30
2022-08-17T00:30:18.952Z,96.39
2022-08-17T00:31:18.954Z,96.50
2022-08-17T00:33:15.240Z,96.30
2022-08-17T00:33:19.916Z,96.50
2022-08-17T00:34:18.908Z,96.69
2022-08-17T00:35:18.895Z,96.80
2022-08-17T00:36:18.911Z,96.69
2022-08-17T00:37:18.884Z,96.39
2022-08-17T00:38:18.883Z,97.00
2022-08-17T00:39:18.852Z,97.09
2022-08-17T00:40:18.843Z,97.00
2022-08-17T00:41:18.832Z,97.55
2022-08-17T00:42:18.848Z,96.74
2022-08-17T00:43:18.824Z,97.34
2022-08-17T00:44:18.815Z,97.34
2022-08-17T00:45:18.798Z,97.30
2022-08-17T00:46:18.792Z,97.80
2022-08-17T00:47:18.773Z,97.64
2022-08-17T00:48:29.471Z,97.64
2022-08-17T00:49:19.755Z,97.55
2022-08-17T00:50:18.758Z,97.75
2022-08-17T00:51:18.726Z,98.15
2022-08-17T00:52:18.732Z,97.85
2022-08-17T00:53:18.734Z,98.15
2022-08-17T00:54:18.703Z,98.75
2022-08-17T00:55:18.688Z,98.25
2022-08-17T00:56:18.692Z,98.75
2022-08-17T00:57:18.670Z,98.75
2022-08-17T00:58:18.656Z,98.05
2022-08-17T00:59:19.661Z,98.05
2022-08-17T01:00:18.637Z,97.85
2022-08-17T01:01:21.689Z,97.95
2022-08-17T01:02:18.628Z,97.64
2022-08-17T01:03:18.599Z,97.85
2022-08-17T01:04:18.592Z,97.75
2022-08-17T01:05:27.536Z,97.85
2022-08-17T01:06:18.670Z,98.05
2022-08-17T01:07:18.669Z,97.75
2022-08-17T01:08:18.632Z,97.85
2022-08-17T01:09:18.638Z,97.85
2022-08-17T01:10:58.953Z,97.44
2022-08-17T01:11:19.524Z,97.75
2022-08-17T01:12:18.521Z,97.95
2022-08-17T01:13:18.511Z,97.79
2022-08-17T01:14:18.524Z,98.80
2022-08-17T01:15:18.498Z,98.80
2022-08-17T01:16:18.490Z,98.70
2022-08-17T01:17:18.446Z,98.60
2022-08-17T01:18:18.441Z,98.60
2022-08-17T01:19:18.437Z,98.50
2022-08-17T01:20:18.434Z,98.50
2022-08-17T01:21:18.422Z,98.30
2022-08-17T01:22:18.402Z,98.30
2022-08-17T01:23:20.622Z,98.90
2022-08-17T01:24:18.384Z,98.94
2022-08-17T01:25:18.369Z,99.00
2022-08-17T01:26:18.410Z,98.70
2022-08-17T01:27:18.618Z,98.60
2022-08-17T01:28:33.507Z,99.10
2022-08-17T01:29:19.319Z,98.80
2022-08-17T01:30:58.172Z,99.15
2022-08-17T01:31:19.300Z,99.25
2022-08-17T01:32:18.324Z,98.80
2022-08-17T01:33:18.289Z,99.15
2022-08-17T01:34:18.273Z,99.20
2022-08-17T01:35:18.256Z,99.20
2022-08-17T01:36:18.252Z,99.40
2022-08-17T01:37:23.467Z,99.30
2022-08-17T01:38:18.228Z,99.99
2022-08-17T01:39:19.220Z,99.99
2022-08-17T01:40:18.200Z,99.40
2022-08-17T01:41:18.201Z,99.10
2022-08-17T01:42:18.196Z,99.30
2022-08-17T01:43:18.187Z,99.30
2022-08-17T01:44:18.165Z,99.20
2022-08-17T01:45:18.154Z,99.10
2022-08-17T01:46:18.155Z,99.30
2022-08-17T01:47:18.134Z,99.60
2022-08-17T01:48:18.123Z,99.10
2022-08-17T01:49:18.125Z,99.30
2022-08-17T01:50:18.096Z,99.45
2022-08-17T01:51:18.102Z,99.05
2022-08-17T01:52:18.078Z,98.85
2022-08-17T01:53:18.070Z,98.85
2022-08-17T01:54:18.063Z,99.65
2022-08-17T01:55:18.063Z,99.65
2022-08-17T01:56:18.052Z,99.35
2022-08-17T01:57:18.037Z,99.45
2022-08-17T01:58:18.011Z,99.65
2022-08-17T01:59:18.018Z,99.15
2022-08-17T02:00:17.991Z,98.90
2022-08-17T02:01:18.049Z,99.15
2022-08-17T02:02:30.644Z,99.15
2022-08-17T02:03:18.956Z,99.05
2022-08-17T02:04:17.954Z,99.45
2022-08-17T02:05:17.940Z,99.35
2022-08-17T02:06:27.924Z,99.15
2022-08-17T02:07:18.935Z,99.25
2022-08-17T02:08:19.988Z,99.25
2022-08-17T02:09:17.893Z,99.35
2022-08-17T02:10:19.985Z,99.05
2022-08-17T02:11:17.871Z,99.25
2022-08-17T02:12:37.639Z,99.40
2022-08-17T02:13:18.865Z,99.45
2022-08-17T02:14:17.853Z,99.50
2022-08-17T02:15:17.827Z,99.60
2022-08-17T02:16:17.829Z,99.90
2022-08-17T02:17:17.827Z,99.90
2022-08-17T02:18:17.799Z,99.90
2022-08-17T02:19:17.815Z,99.99
2022-08-17T02:20:17.772Z,99.99
2022-08-17T02:21:18.769Z,99.90
2022-08-17T02:22:17.770Z,99.99
2022-08-17T02:23:17.746Z,99.99
2022-08-17T02:24:17.767Z,99.90
2022-08-17T02:25:18.755Z,99.80
2022-08-17T02:26:26.088Z,99.70
2022-08-17T02:27:18.698Z,99.70
2022-08-17T02:28:17.695Z,99.70
2022-08-17T02:29:17.682Z,99.99
2022-08-17T02:30:59.443Z,99.99
2022-08-17T02:31:18.679Z,99.99
2022-08-17T02:32:27.372Z,99.99
2022-08-17T02:33:18.655Z,99.99
2022-08-17T02:34:17.632Z,99.99
2022-08-17T02:35:19.404Z,99.99
2022-08-17T02:36:17.610Z,99.99
2022-08-17T02:37:17.626Z,99.99
2022-08-17T02:38:17.589Z,99.99
2022-08-17T02:39:17.587Z,99.99
2022-08-17T02:40:17.559Z,99.99
2022-08-17T02:41:18.558Z,99.99
2022-08-17T02:42:17.539Z,99.99
2022-08-17T02:43:17.544Z,99.99
2022-08-17T02:44:38.818Z,99.99
2022-08-17T02:45:18.510Z,99.99
2022-08-17T02:46:17.505Z,99.99
2022-08-17T02:47:17.490Z,99.99
2022-08-17T02:48:17.490Z,99.99
2022-08-17T02:49:18.482Z,99.99
2022-08-17T02:50:17.461Z,99.99
2022-08-17T02:51:17.458Z,99.99
2022-08-17T02:52:17.438Z,99.99
2022-08-17T02:53:18.422Z,99.99
2022-08-17T02:54:39.842Z,99.99
2022-08-17T02:55:18.458Z,99.99
2022-08-17T02:56:17.390Z,99.99
2022-08-17T02:57:17.388Z,99.99
2022-08-17T02:58:17.365Z,99.99
2022-08-17T02:59:18.363Z,99.99
2022-08-17T03:00:17.348Z,99.99
2022-08-17T03:01:17.394Z,99.99
2022-08-17T03:02:17.332Z,99.99
2022-08-17T03:03:17.329Z,99.99
2022-08-17T03:04:17.310Z,99.99
2022-08-17T03:05:17.301Z,99.99
2022-08-17T03:06:17.309Z,99.99
2022-08-17T03:07:17.295Z,99.99
2022-08-17T03:08:17.276Z,99.99
2022-08-17T03:09:17.258Z,99.99
2022-08-17T03:10:17.257Z,99.99
2022-08-17T03:11:17.232Z,99.99
2022-08-17T03:12:17.219Z,99.99
2022-08-17T03:13:17.227Z,99.99
2022-08-17T03:14:26.458Z,99.99
2022-08-17T03:15:17.271Z,99.99
2022-08-17T03:16:17.275Z,99.99
2022-08-17T03:17:17.607Z,99.99
2022-08-17T03:18:19.383Z,99.99
2022-08-17T03:19:18.156Z,99.99
2022-08-17T03:20:17.146Z,99.99
2022-08-17T03:21:17.147Z,99.99
2022-08-17T03:22:36.599Z,99.99
2022-08-17T03:23:18.111Z,99.99
2022-08-17T03:24:17.103Z,99.99
2022-08-17T03:25:19.514Z,99.99
2022-08-17T03:26:18.083Z,99.99
2022-08-17T03:27:17.066Z,99.99
2022-08-17T03:28:17.062Z,99.99
2022-08-17T03:29:17.060Z,99.99
2022-08-17T03:30:17.035Z,99.99
2022-08-17T03:31:17.050Z,99.99
2022-08-17T03:32:17.021Z,99.99
2022-08-17T03:33:17.093Z,99.99
2022-08-17T03:34:16.999Z,99.99
2022-08-17T03:35:17.803Z,99.99
2022-08-17T03:36:16.979Z,99.99
2022-08-17T03:37:16.976Z,99.99
2022-08-17T03:38:16.958Z,99.99
2022-08-17T03:39:16.955Z,99.99
2022-08-17T03:40:16.937Z,99.99
2022-08-17T03:41:17.940Z,99.99
2022-08-17T03:42:32.110Z,99.99
2022-08-17T03:43:17.904Z,99.99
2022-08-17T03:44:16.910Z,99.99
2022-08-17T03:45:16.898Z,99.99
2022-08-17T03:46:34.476Z,99.99
2022-08-17T03:47:17.870Z,99.99
2022-08-17T03:48:16.851Z,99.99
2022-08-17T03:49:16.837Z,99.99
2022-08-17T03:50:16.842Z,99.99
2022-08-17T03:51:16.846Z,99.99
2022-08-17T03:52:16.811Z,99.99
2022-08-17T03:53:16.808Z,99.99
2022-08-17T03:54:16.784Z,99.99
2022-08-17T03:55:16.781Z,99.99
2022-08-17T03:56:16.769Z,99.99
2022-08-17T03:57:16.789Z,99.99
2022-08-17T03:58:16.743Z,99.99
2022-08-17T03:59:20.953Z,99.99
2022-08-17T04:00:17.737Z,99.99
2022-08-17T04:01:16.804Z,99.99
2022-08-17T04:02:16.696Z,99.99
2022-08-17T04:03:16.700Z,99.99
2022-08-17T04:04:16.690Z,99.99
2022-08-17T04:05:16.697Z,99.99
2022-08-17T04:06:16.659Z,99.99
2022-08-17T04:07:16.674Z,99.99
2022-08-17T04:08:16.637Z,99.99
2022-08-17T04:09:16.636Z,99.99
2022-08-17T04:10:16.631Z,99.99
2022-08-17T04:11:16.626Z,99.99
2022-08-17T04:12:16.593Z,99.99
2022-08-17T04:13:16.595Z,99.99
2022-08-17T04:14:17.581Z,99.99
2022-08-17T04:15:16.602Z,99.99
2022-08-17T04:16:16.563Z,99.99
2022-08-17T04:17:16.560Z,99.99
2022-08-17T04:18:16.543Z,99.99
2022-08-17T04:19:16.541Z,99.99
2022-08-17T04:20:16.520Z,99.99
2022-08-17T04:21:16.515Z,99.99
2022-08-17T04:22:32.790Z,99.99
2022-08-17T04:23:17.500Z,99.99
2022-08-17T04:24:16.478Z,99.99
2022-08-17T04:25:16.473Z,99.99
2022-08-17T04:26:53.157Z,99.99
2022-08-17T04:27:17.457Z,99.99
2022-08-17T04:28:16.533Z,99.99
2022-08-17T04:29:16.433Z,99.99
2022-08-17T04:30:16.404Z,99.71
2022-08-17T04:31:16.398Z,99.55
2022-08-17T04:32:16.388Z,99.66
2022-08-17T04:33:16.703Z,99.90
2022-08-17T04:34:16.371Z,99.76
2022-08-17T04:35:16.382Z,99.99
2022-08-17T04:36:16.339Z,99.96
2022-08-17T04:37:16.334Z,99.99
2022-08-17T04:38:16.339Z,99.46
2022-08-17T04:39:16.323Z,99.15
2022-08-17T04:40:16.327Z,99.11
2022-08-17T04:41:16.317Z,99.11
2022-08-17T04:42:16.283Z,99.31
2022-08-17T04:43:16.286Z,99.11
2022-08-17T04:44:27.219Z,99.51
2022-08-17T04:45:17.245Z,99.21
2022-08-17T04:46:16.240Z,99.11
2022-08-17T04:47:16.245Z,99.21
2022-08-17T04:48:16.219Z,99.21
2022-08-17T04:49:16.230Z,99.31
2022-08-17T04:50:16.207Z,99.21
2022-08-17T04:51:16.187Z,99.26
2022-08-17T04:52:43.515Z,99.16
2022-08-17T04:53:17.183Z,99.16
2022-08-17T04:54:16.167Z,98.86
2022-08-17T04:55:16.155Z,98.96
2022-08-17T04:56:16.900Z,98.86
2022-08-17T04:57:16.134Z,98.56
2022-08-17T04:58:16.115Z,98.56
2022-08-17T04:59:16.109Z,98.81
2022-08-17T05:00:16.115Z,98.91
2022-08-17T05:01:16.181Z,98.11
2022-08-17T05:02:16.082Z,98.31
2022-08-17T05:03:16.066Z,98.36
2022-08-17T05:04:21.389Z,98.36
2022-08-17T05:05:17.055Z,98.57
2022-08-17T05:06:16.044Z,97.86
2022-08-17T05:07:19.799Z,97.86
2022-08-17T05:08:17.006Z,97.76
2022-08-17T05:09:15.997Z,97.76
2022-08-17T05:10:16.007Z,97.31
2022-08-17T05:11:15.980Z,97.36
2022-08-17T05:12:15.978Z,97.21
2022-08-17T05:13:15.957Z,97.11
2022-08-17T05:14:15.943Z,97.31
2022-08-17T05:15:15.953Z,96.81
2022-08-17T05:16:15.939Z,97.02
2022-08-17T05:17:15.916Z,97.02
2022-08-17T05:18:15.922Z,96.97
2022-08-17T05:19:15.892Z,96.56
2022-08-17T05:20:15.891Z,96.62
2022-08-17T05:21:15.896Z,96.12
2022-08-17T05:22:15.855Z,95.37
2022-08-17T05:23:15.849Z,96.02
2022-08-17T05:24:38.201Z,95.57
2022-08-17T05:25:16.823Z,95.57
2022-08-17T05:26:21.978Z,95.43
2022-08-17T05:27:19.156Z,95.32
2022-08-17T05:28:16.008Z,95.12
2022-08-17T05:29:15.789Z,94.93
2022-08-17T05:30:15.788Z,94.93
2022-08-17T05:31:15.784Z,94.53
2022-08-17T05:32:38.060Z,94.62
2022-08-17T05:33:16.767Z,95.12
2022-08-17T05:34:15.736Z,94.32
2022-08-17T05:35:15.732Z,94.48
2022-08-17T05:36:41.684Z,94.98
2022-08-17T05:37:16.704Z,94.18
2022-08-17T05:38:15.697Z,93.78
2022-08-17T05:39:16.134Z,93.24
2022-08-17T05:40:15.688Z,93.24
2022-08-17T05:41:15.663Z,92.93
2022-08-17T05:42:15.667Z,92.99
2022-08-17T05:43:15.671Z,93.09
2022-08-17T05:44:15.633Z,92.99
2022-08-17T05:45:15.620Z,92.29
2022-08-17T05:46:15.609Z,92.59
2022-08-17T05:47:15.597Z,91.85
2022-08-17T05:48:15.622Z,92.05
2022-08-17T05:49:15.596Z,92.14
2022-08-17T05:50:18.046Z,92.25
2022-08-17T05:51:15.555Z,92.25
2022-08-17T05:52:19.771Z,91.30
2022-08-17T05:53:15.538Z,91.80
2022-08-17T05:54:15.540Z,91.90
2022-08-17T05:55:15.522Z,90.86
2022-08-17T05:56:30.220Z,91.06
2022-08-17T05:57:16.509Z,90.46
2022-08-17T05:58:15.500Z,89.66
2022-08-17T05:59:15.480Z,89.82
2022-08-17T06:00:15.490Z,89.22
2022-08-17T06:01:15.485Z,88.72
2022-08-17T06:02:15.463Z,88.28
2022-08-17T06:03:15.460Z,87.78
2022-08-17T06:04:15.464Z,87.98
2022-08-17T06:05:15.420Z,87.04
2022-08-17T06:06:15.425Z,87.54
2022-08-17T06:07:15.404Z,86.40
2022-08-17T06:08:15.385Z,86.20
2022-08-17T06:09:15.397Z,84.81
2022-08-17T06:10:15.372Z,84.41
2022-08-17T06:11:15.372Z,84.86
2022-08-17T06:12:18.958Z,84.07
2022-08-17T06:13:15.475Z,82.28
2022-08-17T06:14:16.129Z,82.24
2022-08-17T06:15:15.363Z,81.84
2022-08-17T06:16:33.859Z,82.43
2022-08-17T06:17:16.370Z,82.10
2022-08-17T06:18:18.994Z,81.80
2022-08-17T06:19:15.397Z,81.96
2022-08-17T06:20:15.298Z,79.47
2022-08-17T06:21:15.285Z,78.78
2022-08-17T06:22:15.247Z,79.47
2022-08-17T06:23:15.236Z,77.64
2022-08-17T06:24:15.244Z,77.94
2022-08-17T06:25:15.266Z,77.70
2022-08-17T06:26:15.225Z,76.91
2022-08-17T06:27:15.200Z,75.59
2022-08-17T06:28:15.272Z,75.29
2022-08-17T06:29:18.572Z,76.08
2022-08-17T06:30:15.209Z,74.89
2022-08-17T06:31:15.227Z,75.15
2022-08-17T06:32:15.270Z,74.95
2022-08-17T06:33:15.256Z,73.27
2022-08-17T06:34:15.256Z,73.46
2022-08-17T06:35:15.182Z,74.02
2022-08-17T06:36:16.250Z,73.96
2022-08-17T06:37:15.114Z,74.12
2022-08-17T06:38:37.084Z,75.21
2022-08-17T06:39:16.189Z,74.42
2022-08-17T06:40:15.208Z,74.32
2022-08-17T06:41:15.941Z,74.72
2022-08-17T06:43:01.993Z,74.62
2022-08-17T06:43:16.034Z,74.58
2022-08-17T06:44:43.390Z,74.78
2022-08-17T06:45:16.142Z,74.48
2022-08-17T06:46:15.108Z,74.08
2022-08-17T06:47:15.010Z,74.05
2022-08-17T06:48:16.071Z,73.89
2022-08-17T06:49:15.082Z,73.99
2022-08-17T06:50:15.009Z,73.39
2022-08-17T06:51:15.034Z,74.98
2022-08-17T06:52:42.107Z,73.00
2022-08-17T06:53:15.972Z,72.76
2022-08-17T06:54:14.918Z,72.66
2022-08-17T06:55:18.179Z,72.96
2022-08-17T06:56:14.879Z,72.43
2022-08-17T06:57:14.870Z,72.63
2022-08-17T06:58:16.404Z,70.75
2022-08-17T06:59:14.861Z,71.83
2022-08-17T07:00:14.881Z,72.03
2022-08-17T07:01:14.975Z,70.94
2022-08-17T07:02:14.813Z,70.75
2022-08-17T07:03:14.815Z,72.13
2022-08-17T07:04:14.807Z,71.14
2022-08-17T07:05:14.795Z,70.94
2022-08-17T07:06:14.802Z,71.11
2022-08-17T07:07:14.778Z,69.53
2022-08-17T07:08:14.775Z,69.42
2022-08-17T07:09:14.750Z,70.42
2022-08-17T07:10:14.787Z,70.31
2022-08-17T07:11:14.728Z,69.62
2022-08-17T07:12:14.715Z,70.18
2022-08-17T07:13:14.704Z,69.72
2022-08-17T07:14:17.304Z,69.92
2022-08-17T07:15:14.690Z,69.19
2022-08-17T07:16:14.688Z,68.60
2022-08-17T07:17:14.661Z,69.59
2022-08-17T07:18:14.671Z,66.98
2022-08-17T07:19:14.692Z,67.31
2022-08-17T07:20:14.626Z,67.77
2022-08-17T07:21:17.987Z,68.27
2022-08-17T07:22:14.633Z,68.66
2022-08-17T07:23:14.608Z,69.32
2022-08-17T07:24:29.583Z,67.64
2022-08-17T07:25:15.991Z,68.33
2022-08-17T07:26:14.590Z,67.54
2022-08-17T07:27:14.575Z,65.07
2022-08-17T07:28:14.659Z,66.03
2022-08-17T07:29:14.539Z,67.32
2022-08-17T07:30:14.531Z,65.93
2022-08-17T07:31:14.510Z,67.02
2022-08-17T07:32:14.515Z,66.39
2022-08-17T07:33:14.563Z,66.49
2022-08-17T07:34:22.207Z,65.83
